sensor_id;sensor_type;location;lat;lon;timestamp;pressure;altitude;pressure_sealevel;temperature;humidity
48555;BME280;34336;48.270;16.716;2023-07-30T00:01:10;109325.25;;;18.16;54.50
48555;BME280;34336;48.270;16.716;2023-07-30T00:03:38;109325.25;;;18.16;54.24
48555;BME280;34336;48.270;16.716;2023-07-30T00:06:06;109325.25;;;18.16;54.47
48555;BME280;34336;48.270;16.716;2023-07-30T00:08:34;109325.25;;;18.16;54.91
48555;BME280;34336;48.270;16.716;2023-07-30T00:11:01;109325.25;;;18.16;55.09
48555;BME280;34336;48.270;16.716;2023-07-30T00:13:30;109325.25;;;18.16;55.87
48555;BME280;34336;48.270;16.716;2023-07-30T00:15:58;109325.25;;;18.16;56.15
48555;BME280;34336;48.270;16.716;2023-07-30T00:18:26;109325.25;;;18.16;56.48
48555;BME280;34336;48.270;16.716;2023-07-30T00:20:53;109325.25;;;18.16;56.30
48555;BME280;34336;48.270;16.716;2023-07-30T00:23:21;109325.25;;;18.16;56.72
48555;BME280;34336;48.270;16.716;2023-07-30T00:25:49;109325.25;;;18.16;57.48
48555;BME280;34336;48.270;16.716;2023-07-30T00:28:17;109325.25;;;18.16;57.69
48555;BME280;34336;48.270;16.716;2023-07-30T00:30:46;109325.25;;;18.16;58.88
48555;BME280;34336;48.270;16.716;2023-07-30T00:33:15;109325.25;;;18.16;59.20
48555;BME280;34336;48.270;16.716;2023-07-30T00:35:43;109325.25;;;18.16;59.36
48555;BME280;34336;48.270;16.716;2023-07-30T00:38:11;109325.25;;;18.16;59.82
48555;BME280;34336;48.270;16.716;2023-07-30T00:40:42;109325.25;;;18.16;60.10
48555;BME280;34336;48.270;16.716;2023-07-30T00:43:10;109325.25;;;18.16;60.04
48555;BME280;34336;48.270;16.716;2023-07-30T00:45:40;109325.25;;;18.16;60.42
48555;BME280;34336;48.270;16.716;2023-07-30T00:48:08;109325.25;;;18.16;60.79
48555;BME280;34336;48.270;16.716;2023-07-30T00:50:37;109325.25;;;18.16;61.09
48555;BME280;34336;48.270;16.716;2023-07-30T00:53:08;109325.25;;;18.16;61.22
48555;BME280;34336;48.270;16.716;2023-07-30T00:55:36;109325.25;;;18.16;61.58
48555;BME280;34336;48.270;16.716;2023-07-30T00:58:04;109325.25;;;18.16;62.25
48555;BME280;34336;48.270;16.716;2023-07-30T01:00:32;109325.25;;;18.16;62.35
48555;BME280;34336;48.270;16.716;2023-07-30T01:03:00;109325.25;;;18.16;63.19
48555;BME280;34336;48.270;16.716;2023-07-30T01:05:28;109325.25;;;18.16;63.31
48555;BME280;34336;48.270;16.716;2023-07-30T01:07:55;109325.25;;;18.16;63.64
48555;BME280;34336;48.270;16.716;2023-07-30T01:10:24;109325.25;;;18.16;64.01
48555;BME280;34336;48.270;16.716;2023-07-30T01:12:53;109325.25;;;18.16;64.51
48555;BME280;34336;48.270;16.716;2023-07-30T01:15:21;109325.25;;;18.16;64.94
48555;BME280;34336;48.270;16.716;2023-07-30T01:17:48;109325.25;;;18.16;65.07
48555;BME280;34336;48.270;16.716;2023-07-30T01:20:16;109325.25;;;18.16;64.96
48555;BME280;34336;48.270;16.716;2023-07-30T01:22:44;109325.25;;;18.16;65.49
48555;BME280;34336;48.270;16.716;2023-07-30T01:25:11;109325.25;;;18.16;65.56
48555;BME280;34336;48.270;16.716;2023-07-30T01:27:44;109325.25;;;18.16;65.69
48555;BME280;34336;48.270;16.716;2023-07-30T01:30:19;109325.25;;;18.16;65.93
48555;BME280;34336;48.270;16.716;2023-07-30T01:32:50;109325.25;;;18.16;66.30
48555;BME280;34336;48.270;16.716;2023-07-30T01:35:26;109325.25;;;18.16;66.39
48555;BME280;34336;48.270;16.716;2023-07-30T01:37:54;109325.25;;;18.16;66.00
48555;BME280;34336;48.270;16.716;2023-07-30T01:40:23;109325.25;;;18.16;65.98
48555;BME280;34336;48.270;16.716;2023-07-30T01:42:51;109325.25;;;18.16;65.86
48555;BME280;34336;48.270;16.716;2023-07-30T01:45:19;109325.25;;;18.16;66.13
48555;BME280;34336;48.270;16.716;2023-07-30T01:47:47;109325.25;;;18.16;66.22
48555;BME280;34336;48.270;16.716;2023-07-30T01:50:16;109325.25;;;18.16;66.60
48555;BME280;34336;48.270;16.716;2023-07-30T01:52:44;109325.25;;;18.16;67.04
48555;BME280;34336;48.270;16.716;2023-07-30T01:55:12;109325.25;;;18.16;67.50
48555;BME280;34336;48.270;16.716;2023-07-30T01:57:40;109325.25;;;18.16;67.21
48555;BME280;34336;48.270;16.716;2023-07-30T02:00:08;109325.25;;;18.16;66.79
48555;BME280;34336;48.270;16.716;2023-07-30T02:02:36;109325.25;;;18.16;67.23
48555;BME280;34336;48.270;16.716;2023-07-30T02:05:04;109325.25;;;18.16;67.11
48555;BME280;34336;48.270;16.716;2023-07-30T02:07:33;109325.25;;;18.16;66.65
48555;BME280;34336;48.270;16.716;2023-07-30T02:10:01;109325.25;;;18.16;66.30
48555;BME280;34336;48.270;16.716;2023-07-30T02:12:29;109325.25;;;18.16;65.94
48555;BME280;34336;48.270;16.716;2023-07-30T02:14:57;109325.25;;;18.16;66.20
48555;BME280;34336;48.270;16.716;2023-07-30T02:17:25;109325.25;;;18.16;66.25
48555;BME280;34336;48.270;16.716;2023-07-30T02:19:53;109325.25;;;18.16;65.62
48555;BME280;34336;48.270;16.716;2023-07-30T02:22:22;109325.25;;;18.16;65.32
48555;BME280;34336;48.270;16.716;2023-07-30T02:24:50;109325.25;;;18.16;64.93
48555;BME280;34336;48.270;16.716;2023-07-30T02:27:19;109325.25;;;18.16;65.21
48555;BME280;34336;48.270;16.716;2023-07-30T02:29:47;109325.25;;;18.16;65.11
48555;BME280;34336;48.270;16.716;2023-07-30T02:32:17;109325.25;;;18.16;64.86
48555;BME280;34336;48.270;16.716;2023-07-30T02:34:44;109325.25;;;18.16;64.77
48555;BME280;34336;48.270;16.716;2023-07-30T02:37:12;109325.25;;;18.16;65.32
48555;BME280;34336;48.270;16.716;2023-07-30T02:39:40;109325.25;;;18.16;66.42
48555;BME280;34336;48.270;16.716;2023-07-30T02:42:08;109325.25;;;18.16;66.40
48555;BME280;34336;48.270;16.716;2023-07-30T02:44:36;109325.25;;;18.16;66.40
48555;BME280;34336;48.270;16.716;2023-07-30T02:47:04;109325.25;;;18.16;66.53
48555;BME280;34336;48.270;16.716;2023-07-30T02:49:31;109325.25;;;18.16;66.49
48555;BME280;34336;48.270;16.716;2023-07-30T02:51:59;109325.25;;;18.16;66.49
48555;BME280;34336;48.270;16.716;2023-07-30T02:54:27;109325.25;;;18.16;66.56
48555;BME280;34336;48.270;16.716;2023-07-30T02:56:55;109325.25;;;18.16;66.37
48555;BME280;34336;48.270;16.716;2023-07-30T02:59:24;109325.25;;;18.16;66.01
48555;BME280;34336;48.270;16.716;2023-07-30T03:01:52;109325.25;;;18.16;65.86
48555;BME280;34336;48.270;16.716;2023-07-30T03:04:22;109325.25;;;18.16;65.50
48555;BME280;34336;48.270;16.716;2023-07-30T03:06:49;109325.25;;;18.16;65.35
48555;BME280;34336;48.270;16.716;2023-07-30T03:09:19;109325.25;;;18.16;65.51
48555;BME280;34336;48.270;16.716;2023-07-30T03:11:52;109325.25;;;18.16;65.16
48555;BME280;34336;48.270;16.716;2023-07-30T03:14:19;109325.25;;;18.16;64.64
48555;BME280;34336;48.270;16.716;2023-07-30T03:16:51;109325.25;;;18.16;64.31
48555;BME280;34336;48.270;16.716;2023-07-30T03:19:19;109325.25;;;18.16;64.58
48555;BME280;34336;48.270;16.716;2023-07-30T03:21:46;109325.25;;;18.16;64.15
48555;BME280;34336;48.270;16.716;2023-07-30T03:24:14;109325.25;;;18.16;64.04
48555;BME280;34336;48.270;16.716;2023-07-30T03:26:41;109325.25;;;18.16;63.98
48555;BME280;34336;48.270;16.716;2023-07-30T03:29:09;109325.25;;;18.16;63.93
48555;BME280;34336;48.270;16.716;2023-07-30T03:31:37;109325.25;;;18.16;64.20
48555;BME280;34336;48.270;16.716;2023-07-30T03:34:06;109325.25;;;18.16;64.40
48555;BME280;34336;48.270;16.716;2023-07-30T03:36:34;109325.25;;;18.16;64.42
48555;BME280;34336;48.270;16.716;2023-07-30T03:39:01;109325.25;;;18.16;64.38
48555;BME280;34336;48.270;16.716;2023-07-30T03:41:29;109325.25;;;18.16;64.29
48555;BME280;34336;48.270;16.716;2023-07-30T03:43:57;109325.25;;;18.16;64.27
48555;BME280;34336;48.270;16.716;2023-07-30T03:46:25;109325.25;;;18.16;65.13
48555;BME280;34336;48.270;16.716;2023-07-30T03:48:54;109325.25;;;18.16;65.99
48555;BME280;34336;48.270;16.716;2023-07-30T03:51:22;109325.25;;;18.16;66.58
48555;BME280;34336;48.270;16.716;2023-07-30T03:53:49;109325.25;;;18.16;67.18
48555;BME280;34336;48.270;16.716;2023-07-30T03:56:17;109325.25;;;18.16;67.89
48555;BME280;34336;48.270;16.716;2023-07-30T03:58:45;109325.25;;;18.16;68.01
48555;BME280;34336;48.270;16.716;2023-07-30T04:01:13;109325.25;;;18.16;68.58
48555;BME280;34336;48.270;16.716;2023-07-30T04:03:42;109325.25;;;18.16;69.23
48555;BME280;34336;48.270;16.716;2023-07-30T04:06:10;109325.25;;;18.16;69.82
48555;BME280;34336;48.270;16.716;2023-07-30T04:08:39;109325.25;;;18.16;70.28
48555;BME280;34336;48.270;16.716;2023-07-30T04:11:09;109325.25;;;18.16;69.79
48555;BME280;34336;48.270;16.716;2023-07-30T04:13:36;109325.25;;;18.16;69.81
48555;BME280;34336;48.270;16.716;2023-07-30T04:16:07;109325.25;;;18.16;69.85
48555;BME280;34336;48.270;16.716;2023-07-30T04:18:35;109325.25;;;18.16;69.56
48555;BME280;34336;48.270;16.716;2023-07-30T04:21:03;109325.25;;;18.16;68.83
48555;BME280;34336;48.270;16.716;2023-07-30T04:23:31;109325.25;;;18.16;68.55
48555;BME280;34336;48.270;16.716;2023-07-30T04:25:59;109325.25;;;18.16;68.55
48555;BME280;34336;48.270;16.716;2023-07-30T04:28:28;109325.25;;;18.16;68.75
48555;BME280;34336;48.270;16.716;2023-07-30T04:30:56;109325.25;;;18.16;67.69
48555;BME280;34336;48.270;16.716;2023-07-30T04:33:24;109325.25;;;18.16;67.28
48555;BME280;34336;48.270;16.716;2023-07-30T04:35:55;109325.25;;;18.16;66.74
48555;BME280;34336;48.270;16.716;2023-07-30T04:38:24;109325.25;;;18.16;66.42
48555;BME280;34336;48.270;16.716;2023-07-30T04:40:54;109325.25;;;18.16;66.55
48555;BME280;34336;48.270;16.716;2023-07-30T04:43:22;109325.25;;;18.16;67.33
48555;BME280;34336;48.270;16.716;2023-07-30T04:45:56;109325.25;;;18.16;68.10
48555;BME280;34336;48.270;16.716;2023-07-30T04:48:25;109325.25;;;18.16;68.79
48555;BME280;34336;48.270;16.716;2023-07-30T04:50:54;109325.25;;;18.16;68.99
48555;BME280;34336;48.270;16.716;2023-07-30T04:53:22;109325.25;;;18.16;69.71
48555;BME280;34336;48.270;16.716;2023-07-30T04:55:57;109325.25;;;18.16;71.11
48555;BME280;34336;48.270;16.716;2023-07-30T04:58:26;109325.25;;;18.16;72.22
48555;BME280;34336;48.270;16.716;2023-07-30T05:00:55;109325.25;;;18.16;72.53
48555;BME280;34336;48.270;16.716;2023-07-30T05:03:23;109325.25;;;18.16;72.91
48555;BME280;34336;48.270;16.716;2023-07-30T05:05:51;109325.25;;;18.16;72.93
48555;BME280;34336;48.270;16.716;2023-07-30T05:08:20;109325.25;;;18.16;72.37
48555;BME280;34336;48.270;16.716;2023-07-30T05:10:47;109325.25;;;18.16;72.06
48555;BME280;34336;48.270;16.716;2023-07-30T05:13:15;109325.25;;;18.16;71.85
48555;BME280;34336;48.270;16.716;2023-07-30T05:15:43;109325.25;;;18.16;70.88
48555;BME280;34336;48.270;16.716;2023-07-30T05:22:23;109325.25;;;18.16;67.91
48555;BME280;34336;48.270;16.716;2023-07-30T05:24:53;109325.25;;;18.16;66.19
48555;BME280;34336;48.270;16.716;2023-07-30T05:27:21;109325.25;;;18.16;64.87
48555;BME280;34336;48.270;16.716;2023-07-30T05:29:48;109325.25;;;18.16;64.59
48555;BME280;34336;48.270;16.716;2023-07-30T05:32:17;109325.25;;;18.16;64.02
48555;BME280;34336;48.270;16.716;2023-07-30T05:34:44;109325.25;;;18.16;63.77
48555;BME280;34336;48.270;16.716;2023-07-30T05:37:12;109325.25;;;18.16;63.62
48555;BME280;34336;48.270;16.716;2023-07-30T05:39:39;109325.25;;;18.16;63.56
48555;BME280;34336;48.270;16.716;2023-07-30T05:42:07;109325.25;;;18.16;62.82
48555;BME280;34336;48.270;16.716;2023-07-30T05:44:35;109325.25;;;18.16;62.50
48555;BME280;34336;48.270;16.716;2023-07-30T05:47:02;109325.25;;;18.16;62.31
48555;BME280;34336;48.270;16.716;2023-07-30T05:49:31;109325.25;;;18.16;61.74
48555;BME280;34336;48.270;16.716;2023-07-30T05:51:59;109325.25;;;18.16;61.71
48555;BME280;34336;48.270;16.716;2023-07-30T05:54:27;109325.25;;;18.16;61.38
48555;BME280;34336;48.270;16.716;2023-07-30T05:56:55;109325.25;;;18.16;60.76
48555;BME280;34336;48.270;16.716;2023-07-30T05:59:24;109325.25;;;18.16;59.95
48555;BME280;34336;48.270;16.716;2023-07-30T06:01:52;109325.25;;;18.16;60.18
48555;BME280;34336;48.270;16.716;2023-07-30T06:04:20;109325.25;;;18.16;59.89
48555;BME280;34336;48.270;16.716;2023-07-30T06:06:51;109325.25;;;18.16;59.71
48555;BME280;34336;48.270;16.716;2023-07-30T06:09:20;109325.25;;;18.16;59.27
48555;BME280;34336;48.270;16.716;2023-07-30T06:11:47;109325.25;;;18.16;59.15
48555;BME280;34336;48.270;16.716;2023-07-30T06:14:16;109325.25;;;18.16;58.98
48555;BME280;34336;48.270;16.716;2023-07-30T06:16:44;109325.25;;;18.16;58.43
48555;BME280;34336;48.270;16.716;2023-07-30T06:19:12;109325.25;;;18.16;58.86
48555;BME280;34336;48.270;16.716;2023-07-30T06:21:41;109325.25;;;18.16;59.02
48555;BME280;34336;48.270;16.716;2023-07-30T06:24:09;109325.25;;;18.16;59.13
48555;BME280;34336;48.270;16.716;2023-07-30T06:26:37;109325.25;;;18.16;58.94
48555;BME280;34336;48.270;16.716;2023-07-30T06:29:06;109325.25;;;18.16;59.05
48555;BME280;34336;48.270;16.716;2023-07-30T06:31:35;109325.25;;;18.16;59.54
48555;BME280;34336;48.270;16.716;2023-07-30T06:34:04;109325.25;;;18.16;59.33
48555;BME280;34336;48.270;16.716;2023-07-30T06:36:32;109325.25;;;18.16;59.79
48555;BME280;34336;48.270;16.716;2023-07-30T06:39:00;109325.25;;;18.16;59.40
48555;BME280;34336;48.270;16.716;2023-07-30T06:41:28;109325.25;;;18.16;59.22
48555;BME280;34336;48.270;16.716;2023-07-30T06:43:57;109325.25;;;18.16;59.02
48555;BME280;34336;48.270;16.716;2023-07-30T06:46:24;109325.25;;;18.16;58.96
48555;BME280;34336;48.270;16.716;2023-07-30T06:48:51;109325.25;;;18.16;59.25
48555;BME280;34336;48.270;16.716;2023-07-30T06:51:24;109325.25;;;18.16;58.96
48555;BME280;34336;48.270;16.716;2023-07-30T06:53:51;109325.25;;;18.16;58.32
48555;BME280;34336;48.270;16.716;2023-07-30T06:56:17;109325.25;;;18.16;56.77
48555;BME280;34336;48.270;16.716;2023-07-30T06:58:44;109325.25;;;18.16;56.82
48555;BME280;34336;48.270;16.716;2023-07-30T07:01:11;109325.25;;;18.16;56.50
48555;BME280;34336;48.270;16.716;2023-07-30T07:03:38;109325.25;;;18.16;56.26
48555;BME280;34336;48.270;16.716;2023-07-30T07:06:05;109325.25;;;18.16;56.18
48555;BME280;34336;48.270;16.716;2023-07-30T07:08:32;109325.25;;;18.16;56.23
48555;BME280;34336;48.270;16.716;2023-07-30T07:10:59;109325.25;;;18.16;56.56
48555;BME280;34336;48.270;16.716;2023-07-30T07:13:25;109325.25;;;18.16;56.39
48555;BME280;34336;48.270;16.716;2023-07-30T07:15:52;109325.25;;;18.16;56.19
48555;BME280;34336;48.270;16.716;2023-07-30T07:18:19;109325.25;;;18.16;56.50
48555;BME280;34336;48.270;16.716;2023-07-30T07:20:45;109325.25;;;18.16;57.14
48555;BME280;34336;48.270;16.716;2023-07-30T07:23:13;109325.25;;;18.16;57.25
48555;BME280;34336;48.270;16.716;2023-07-30T07:25:39;109325.25;;;18.16;57.78
48555;BME280;34336;48.270;16.716;2023-07-30T07:28:06;109325.25;;;18.16;57.75
48555;BME280;34336;48.270;16.716;2023-07-30T07:30:35;109325.25;;;18.16;57.88
48555;BME280;34336;48.270;16.716;2023-07-30T07:33:02;109325.25;;;18.16;58.31
48555;BME280;34336;48.270;16.716;2023-07-30T07:35:29;109325.25;;;18.16;58.71
48555;BME280;34336;48.270;16.716;2023-07-30T07:37:57;109325.25;;;18.16;59.38
48555;BME280;34336;48.270;16.716;2023-07-30T07:40:24;109325.25;;;18.16;59.25
48555;BME280;34336;48.270;16.716;2023-07-30T07:42:51;109325.25;;;18.16;59.73
48555;BME280;34336;48.270;16.716;2023-07-30T07:45:17;109325.25;;;18.16;60.15
48555;BME280;34336;48.270;16.716;2023-07-30T07:47:45;109325.25;;;18.16;61.18
48555;BME280;34336;48.270;16.716;2023-07-30T07:50:12;109325.25;;;18.16;61.86
48555;BME280;34336;48.270;16.716;2023-07-30T07:52:38;109325.25;;;18.16;66.94
48555;BME280;34336;48.270;16.716;2023-07-30T07:55:05;109325.25;;;18.16;70.90
48555;BME280;34336;48.270;16.716;2023-07-30T07:57:32;109325.25;;;18.16;75.00
48555;BME280;34336;48.270;16.716;2023-07-30T08:00:03;109325.25;;;18.16;75.50
48555;BME280;34336;48.270;16.716;2023-07-30T08:02:37;109325.25;;;18.16;76.89
48555;BME280;34336;48.270;16.716;2023-07-30T08:05:04;109325.25;;;18.16;77.47
48555;BME280;34336;48.270;16.716;2023-07-30T08:07:31;109325.25;;;18.16;78.69
48555;BME280;34336;48.270;16.716;2023-07-30T08:09:58;109325.25;;;18.16;80.02
48555;BME280;34336;48.270;16.716;2023-07-30T08:12:24;109325.25;;;18.16;79.50
48555;BME280;34336;48.270;16.716;2023-07-30T08:14:51;109325.25;;;18.16;80.33
48555;BME280;34336;48.270;16.716;2023-07-30T08:17:18;109325.25;;;18.16;79.96
48555;BME280;34336;48.270;16.716;2023-07-30T08:19:45;109325.25;;;18.16;80.64
48555;BME280;34336;48.270;16.716;2023-07-30T08:22:11;109325.25;;;18.16;80.80
48555;BME280;34336;48.270;16.716;2023-07-30T08:24:38;109325.25;;;18.16;80.62
48555;BME280;34336;48.270;16.716;2023-07-30T08:27:05;109325.25;;;18.16;79.53
48555;BME280;34336;48.270;16.716;2023-07-30T08:29:31;109325.25;;;18.16;80.44
48555;BME280;34336;48.270;16.716;2023-07-30T08:31:58;109325.25;;;18.16;79.41
48555;BME280;34336;48.270;16.716;2023-07-30T08:34:25;109325.25;;;18.16;79.11
48555;BME280;34336;48.270;16.716;2023-07-30T08:36:55;109325.25;;;18.16;78.30
48555;BME280;34336;48.270;16.716;2023-07-30T08:39:22;109325.25;;;18.16;77.50
48555;BME280;34336;48.270;16.716;2023-07-30T08:41:49;109325.25;;;18.16;77.08
48555;BME280;34336;48.270;16.716;2023-07-30T08:44:16;109325.25;;;18.16;77.33
48555;BME280;34336;48.270;16.716;2023-07-30T08:46:43;109325.25;;;18.16;78.09
48555;BME280;34336;48.270;16.716;2023-07-30T08:49:10;109325.25;;;18.16;77.83
48555;BME280;34336;48.270;16.716;2023-07-30T08:51:37;109325.25;;;18.16;78.56
48555;BME280;34336;48.270;16.716;2023-07-30T08:54:05;109325.25;;;18.16;78.69
48555;BME280;34336;48.270;16.716;2023-07-30T08:56:33;109325.25;;;18.16;78.92
48555;BME280;34336;48.270;16.716;2023-07-30T08:59:01;109325.25;;;18.16;77.69
48555;BME280;34336;48.270;16.716;2023-07-30T09:01:30;109325.25;;;18.16;77.21
48555;BME280;34336;48.270;16.716;2023-07-30T09:03:59;109325.25;;;18.16;75.05
48555;BME280;34336;48.270;16.716;2023-07-30T09:06:29;109325.25;;;18.16;75.06
48555;BME280;34336;48.270;16.716;2023-07-30T09:08:56;109325.25;;;18.16;75.08
48555;BME280;34336;48.270;16.716;2023-07-30T09:11:26;109325.25;;;18.16;74.43
48555;BME280;34336;48.270;16.716;2023-07-30T09:13:54;109325.25;;;18.16;73.82
48555;BME280;34336;48.270;16.716;2023-07-30T09:16:25;109325.25;;;18.16;74.13
48555;BME280;34336;48.270;16.716;2023-07-30T09:18:53;109325.25;;;18.16;74.59
48555;BME280;34336;48.270;16.716;2023-07-30T09:21:31;109325.25;;;18.16;75.05
48555;BME280;34336;48.270;16.716;2023-07-30T09:24:01;109325.25;;;18.16;75.61
48555;BME280;34336;48.270;16.716;2023-07-30T09:26:42;109325.25;;;18.16;76.45
48555;BME280;34336;48.270;16.716;2023-07-30T09:29:10;109325.25;;;18.16;77.02
48555;BME280;34336;48.270;16.716;2023-07-30T09:31:47;109325.25;;;18.16;76.06
48555;BME280;34336;48.270;16.716;2023-07-30T09:34:16;109325.25;;;18.16;76.26
48555;BME280;34336;48.270;16.716;2023-07-30T09:36:44;109325.25;;;18.16;75.57
48555;BME280;34336;48.270;16.716;2023-07-30T09:39:29;109325.25;;;18.16;74.81
48555;BME280;34336;48.270;16.716;2023-07-30T09:42:00;109325.25;;;18.16;74.63
48555;BME280;34336;48.270;16.716;2023-07-30T09:44:27;109325.25;;;18.16;71.32
48555;BME280;34336;48.270;16.716;2023-07-30T09:46:54;109325.25;;;18.16;68.99
48555;BME280;34336;48.270;16.716;2023-07-30T09:49:21;109325.25;;;18.16;69.21
48555;BME280;34336;48.270;16.716;2023-07-30T09:51:51;109325.25;;;18.16;68.72
48555;BME280;34336;48.270;16.716;2023-07-30T09:54:25;109325.25;;;18.16;64.10
48555;BME280;34336;48.270;16.716;2023-07-30T09:56:52;109325.25;;;18.16;62.00
48555;BME280;34336;48.270;16.716;2023-07-30T09:59:19;109325.25;;;18.16;61.21
48555;BME280;34336;48.270;16.716;2023-07-30T10:01:47;109325.25;;;18.16;63.29
48555;BME280;34336;48.270;16.716;2023-07-30T10:04:19;109325.25;;;18.16;62.82
48555;BME280;34336;48.270;16.716;2023-07-30T10:07:04;109325.25;;;18.16;56.38
48555;BME280;34336;48.270;16.716;2023-07-30T10:09:39;109325.25;;;18.16;55.32
48555;BME280;34336;48.270;16.716;2023-07-30T10:12:15;109325.25;;;18.16;56.62
48555;BME280;34336;48.270;16.716;2023-07-30T10:14:43;109325.25;;;18.16;57.66
48555;BME280;34336;48.270;16.716;2023-07-30T10:17:11;109325.25;;;18.16;56.88
48555;BME280;34336;48.270;16.716;2023-07-30T10:19:38;109325.25;;;18.16;57.81
48555;BME280;34336;48.270;16.716;2023-07-30T10:24:40;109325.25;;;18.16;56.32
48555;BME280;34336;48.270;16.716;2023-07-30T10:27:10;109325.25;;;18.16;53.42
48555;BME280;34336;48.270;16.716;2023-07-30T10:29:40;109325.25;;;18.16;53.60
48555;BME280;34336;48.270;16.716;2023-07-30T10:32:09;109325.25;;;18.16;52.15
48555;BME280;34336;48.270;16.716;2023-07-30T10:34:48;109325.25;;;18.16;49.72
48555;BME280;34336;48.270;16.716;2023-07-30T10:37:18;109325.25;;;18.16;48.54
48555;BME280;34336;48.270;16.716;2023-07-30T10:39:49;109325.25;;;18.16;47.82
48555;BME280;34336;48.270;16.716;2023-07-30T10:42:16;109325.25;;;18.16;46.25
48555;BME280;34336;48.270;16.716;2023-07-30T10:44:45;109325.25;;;18.16;45.80
48555;BME280;34336;48.270;16.716;2023-07-30T10:47:12;109325.25;;;18.16;46.71
48555;BME280;34336;48.270;16.716;2023-07-30T10:50:02;109325.25;;;18.16;50.27
48555;BME280;34336;48.270;16.716;2023-07-30T10:52:29;109325.25;;;18.16;50.53
48555;BME280;34336;48.270;16.716;2023-07-30T10:55:00;109325.25;;;18.16;50.02
48555;BME280;34336;48.270;16.716;2023-07-30T10:57:31;109325.25;;;18.16;50.04
48555;BME280;34336;48.270;16.716;2023-07-30T11:00:00;109325.25;;;18.16;52.69
48555;BME280;34336;48.270;16.716;2023-07-30T11:02:28;109325.25;;;18.16;54.53
48555;BME280;34336;48.270;16.716;2023-07-30T11:04:56;109325.25;;;18.16;55.27
48555;BME280;34336;48.270;16.716;2023-07-30T11:07:23;109325.25;;;18.16;59.41
48555;BME280;34336;48.270;16.716;2023-07-30T11:09:59;109325.25;;;18.16;67.38
48555;BME280;34336;48.270;16.716;2023-07-30T11:12:29;109325.25;;;18.16;68.79
48555;BME280;34336;48.270;16.716;2023-07-30T11:15:01;109325.25;;;18.16;69.47
48555;BME280;34336;48.270;16.716;2023-07-30T11:17:28;109325.25;;;18.16;69.75
48555;BME280;34336;48.270;16.716;2023-07-30T11:19:55;109325.25;;;18.16;70.77
48555;BME280;34336;48.270;16.716;2023-07-30T11:22:30;109325.25;;;18.16;69.61
48555;BME280;34336;48.270;16.716;2023-07-30T11:25:16;109325.25;;;18.16;71.11
48555;BME280;34336;48.270;16.716;2023-07-30T11:27:50;109325.25;;;18.16;68.97
48555;BME280;34336;48.270;16.716;2023-07-30T11:30:20;109325.25;;;18.16;67.44
48555;BME280;34336;48.270;16.716;2023-07-30T11:32:50;109325.25;;;18.16;67.03
48555;BME280;34336;48.270;16.716;2023-07-30T11:35:17;109325.25;;;18.16;66.54
48555;BME280;34336;48.270;16.716;2023-07-30T11:37:47;109325.25;;;18.16;65.05
48555;BME280;34336;48.270;16.716;2023-07-30T11:40:14;109325.25;;;18.16;64.20
48555;BME280;34336;48.270;16.716;2023-07-30T11:42:41;109325.25;;;18.16;64.71
48555;BME280;34336;48.270;16.716;2023-07-30T11:45:21;109325.25;;;18.16;61.90
48555;BME280;34336;48.270;16.716;2023-07-30T11:47:51;109325.25;;;18.16;61.93
48555;BME280;34336;48.270;16.716;2023-07-30T11:50:21;109325.25;;;18.16;59.95
48555;BME280;34336;48.270;16.716;2023-07-30T11:52:55;109325.25;;;18.16;57.88
48555;BME280;34336;48.270;16.716;2023-07-30T11:55:37;109325.25;;;18.16;56.40
48555;BME280;34336;48.270;16.716;2023-07-30T11:58:08;109325.25;;;18.16;56.69
48555;BME280;34336;48.270;16.716;2023-07-30T12:00:40;109325.25;;;18.16;58.66
48555;BME280;34336;48.270;16.716;2023-07-30T12:03:12;109325.25;;;18.16;59.46
48555;BME280;34336;48.270;16.716;2023-07-30T12:05:52;109325.25;;;18.16;59.43
48555;BME280;34336;48.270;16.716;2023-07-30T12:08:28;109325.25;;;18.16;60.84
48555;BME280;34336;48.270;16.716;2023-07-30T12:11:03;109325.25;;;18.16;58.12
48555;BME280;34336;48.270;16.716;2023-07-30T12:13:31;109325.25;;;18.16;55.74
48555;BME280;34336;48.270;16.716;2023-07-30T12:16:02;109325.25;;;18.16;57.88
48555;BME280;34336;48.270;16.716;2023-07-30T12:18:31;109325.25;;;18.16;56.42
48555;BME280;34336;48.270;16.716;2023-07-30T12:21:06;109325.25;;;18.16;57.23
48555;BME280;34336;48.270;16.716;2023-07-30T12:23:34;109325.25;;;18.16;56.51
48555;BME280;34336;48.270;16.716;2023-07-30T12:26:02;109325.25;;;18.16;57.69
48555;BME280;34336;48.270;16.716;2023-07-30T12:28:34;109325.25;;;18.16;56.34
48555;BME280;34336;48.270;16.716;2023-07-30T12:31:01;109325.25;;;18.16;55.67
48555;BME280;34336;48.270;16.716;2023-07-30T12:33:29;109325.25;;;18.16;53.75
48555;BME280;34336;48.270;16.716;2023-07-30T12:36:06;109325.25;;;18.16;54.68
48555;BME280;34336;48.270;16.716;2023-07-30T12:38:35;109325.25;;;18.16;53.32
48555;BME280;34336;48.270;16.716;2023-07-30T12:41:02;109325.25;;;18.16;51.89
48555;BME280;34336;48.270;16.716;2023-07-30T12:43:35;109325.25;;;18.16;52.40
48555;BME280;34336;48.270;16.716;2023-07-30T12:46:05;109325.25;;;18.16;55.97
48555;BME280;34336;48.270;16.716;2023-07-30T12:48:46;109325.25;;;18.16;57.80
48555;BME280;34336;48.270;16.716;2023-07-30T12:51:15;109325.25;;;18.16;60.59
48555;BME280;34336;48.270;16.716;2023-07-30T12:53:42;109325.25;;;18.16;63.06
48555;BME280;34336;48.270;16.716;2023-07-30T12:56:09;109325.25;;;18.16;64.57